Time;durP1;ratioP1;P1;durP2;ratioP2;P2;SDS_P1;SDS_P2;PMS_P1;PMS_P2;Temp;Humidity;BMP_temperature;BMP_pressure;BME280_temperature;BME280_humidity;BME280_pressure;Samples;Min_cycle;Max_cycle;Signal;HPM_P1;HPM_P2
2022/07/25 00:02:00;;;;;;;10.80;4.60;;;25.00;99.90;;;;;;4936682;29;20031;-75
2022/07/25 00:04:26;;;;;;;10.52;4.95;;;24.80;99.90;;;;;;4937311;29;20093;-75
2022/07/25 00:06:52;;;;;;;10.80;4.70;;;24.80;99.90;;;;;;4936558;29;20031;-75
2022/07/25 00:09:18;;;;;;;10.18;4.53;;;24.90;99.90;;;;;;4944349;29;20047;-75
2022/07/25 00:11:43;;;;;;;10.48;5.00;;;24.80;99.90;;;;;;4938990;29;20040;-75
2022/07/25 00:14:09;;;;;;;15.05;4.97;;;24.70;99.90;;;;;;4936523;29;20031;-75
2022/07/25 00:16:35;;;;;;;9.35;4.88;;;24.70;99.90;;;;;;4936798;29;20059;-75
2022/07/25 00:19:00;;;;;;;13.63;5.65;;;24.50;99.90;;;;;;4936624;29;20196;-75
2022/07/25 00:21:26;;;;;;;12.75;5.30;;;24.70;99.90;;;;;;4919964;29;20027;-75
2022/07/25 00:23:52;;;;;;;9.90;4.88;;;24.40;99.90;;;;;;4936708;29;20020;-75
2022/07/25 00:26:18;;;;;;;13.23;5.03;;;24.40;99.90;;;;;;4936617;29;20062;-75
2022/07/25 00:28:43;;;;;;;8.05;4.65;;;24.10;99.90;;;;;;4936254;29;20083;-75
2022/07/25 00:31:09;;;;;;;8.23;5.28;;;23.80;99.90;;;;;;4939601;29;20030;-75
2022/07/25 00:33:34;;;;;;;8.75;5.15;;;23.90;99.90;;;;;;4948438;29;20031;-75
2022/07/25 00:36:00;;;;;;;13.65;5.05;;;24.00;99.90;;;;;;4936741;29;20043;-75
2022/07/25 00:38:26;;;;;;;11.95;5.65;;;24.00;99.90;;;;;;4936385;29;20066;-75
2022/07/25 00:40:52;;;;;;;10.38;6.07;;;23.80;99.90;;;;;;4936694;29;20028;-75
2022/07/25 00:43:17;;;;;;;11.30;5.55;;;23.90;99.90;;;;;;4935347;29;20039;-75
2022/07/25 00:45:43;;;;;;;8.90;5.55;;;23.90;99.90;;;;;;4936132;29;20031;-74
2022/07/25 00:48:09;;;;;;;12.25;5.55;;;23.90;99.90;;;;;;4954101;29;20027;-74
2022/07/25 00:50:35;;;;;;;10.48;6.07;;;23.80;99.90;;;;;;4954077;29;20043;-75
2022/07/25 00:53:01;;;;;;;8.82;6.18;;;23.60;99.90;;;;;;4920663;29;20461;-75
2022/07/25 00:55:27;;;;;;;11.20;6.35;;;23.60;99.90;;;;;;4935861;29;20059;-75
2022/07/25 00:57:53;;;;;;;13.63;6.57;;;23.70;99.90;;;;;;4947034;29;20142;-74
2022/07/25 01:00:19;;;;;;;10.63;6.50;;;23.50;99.90;;;;;;4942059;29;20488;-75
2022/07/25 01:02:45;;;;;;;11.25;6.55;;;23.50;99.90;;;;;;4955427;29;20468;-74
2022/07/25 01:05:11;;;;;;;16.30;6.97;;;23.60;99.90;;;;;;4955255;29;20077;-75
2022/07/25 01:07:38;;;;;;;16.17;6.95;;;23.50;99.90;;;;;;4943826;29;20162;-75
2022/07/25 01:10:05;;;;;;;13.82;7.68;;;23.40;99.90;;;;;;4945994;29;20047;-75
2022/07/25 01:12:31;;;;;;;19.00;7.13;;;23.40;99.90;;;;;;4935146;29;20036;-75
2022/07/25 01:14:57;;;;;;;14.80;7.55;;;23.50;99.90;;;;;;4935423;29;20031;-75
2022/07/25 01:17:23;;;;;;;13.93;7.57;;;23.50;99.90;;;;;;4935504;29;20119;-75
2022/07/25 01:19:50;;;;;;;12.88;8.20;;;23.30;99.90;;;;;;4935918;29;20026;-75
2022/07/25 01:22:16;;;;;;;12.80;7.15;;;23.40;99.90;;;;;;4918981;29;20028;-75
2022/07/25 01:24:42;;;;;;;13.75;8.05;;;23.30;99.90;;;;;;4935816;29;20035;-75
2022/07/25 01:27:07;;;;;;;16.65;8.10;;;23.40;99.90;;;;;;4942162;29;20423;-75
2022/07/25 01:29:33;;;;;;;15.00;8.32;;;23.30;99.90;;;;;;4945588;29;20456;-75
2022/07/25 01:31:59;;;;;;;11.07;8.20;;;23.10;99.90;;;;;;4945047;29;20031;-75
2022/07/25 01:34:24;;;;;;;13.13;7.80;;;23.10;99.90;;;;;;4955158;29;20027;-75
2022/07/25 01:36:50;;;;;;;16.45;8.13;;;23.00;99.90;;;;;;4954638;29;20119;-75
2022/07/25 01:39:16;;;;;;;19.17;8.20;;;23.10;99.90;;;;;;4954837;29;20029;-74
2022/07/25 01:41:41;;;;;;;18.33;7.97;;;23.10;99.90;;;;;;4954430;29;20031;-75
2022/07/25 01:44:07;;;;;;;15.00;8.07;;;23.30;99.90;;;;;;4937827;29;20034;-74
2022/07/25 01:46:33;;;;;;;15.55;8.10;;;23.10;99.90;;;;;;4946226;29;20036;-75
2022/07/25 01:48:59;;;;;;;17.35;7.95;;;23.00;99.90;;;;;;4919584;29;20035;-75
2022/07/25 01:51:24;;;;;;;15.52;8.48;;;22.90;99.90;;;;;;4918306;29;20039;-75
2022/07/25 01:53:50;;;;;;;16.60;8.38;;;23.00;99.90;;;;;;4935240;29;20024;-75
2022/07/25 01:56:15;;;;;;;12.52;7.90;;;23.00;99.90;;;;;;4941614;29;20151;-75
2022/07/25 01:58:41;;;;;;;13.77;7.97;;;23.10;99.90;;;;;;4934927;29;20059;-76
2022/07/25 02:01:07;;;;;;;13.25;8.52;;;23.10;99.90;;;;;;4935207;29;20032;-74
2022/07/25 02:03:32;;;;;;;13.77;7.97;;;22.90;99.90;;;;;;4945316;29;20024;-75
2022/07/25 02:06:04;;;;;;;14.45;8.10;;;23.00;99.90;;;;;;4954215;29;20031;-74
2022/07/25 02:08:31;;;;;;;13.45;8.07;;;23.10;99.90;;;;;;4951890;29;20412;-75
2022/07/25 02:10:57;;;;;;;13.98;7.80;;;23.10;99.90;;;;;;4934462;29;20047;-75
2022/07/25 02:13:24;;;;;;;12.25;7.97;;;23.00;99.90;;;;;;4934914;29;20030;-75
2022/07/25 02:15:50;;;;;;;16.67;8.38;;;23.00;99.90;;;;;;4935059;29;20035;-75
2022/07/25 02:18:16;;;;;;;16.30;8.75;;;22.90;99.90;;;;;;4954244;29;20039;-75
2022/07/25 02:20:42;;;;;;;15.50;8.55;;;23.00;99.90;;;;;;4954206;29;20090;-75
2022/07/25 02:23:07;;;;;;;14.95;8.07;;;23.00;99.90;;;;;;4954070;29;20023;-75
2022/07/25 02:25:33;;;;;;;16.83;8.00;;;23.00;99.90;;;;;;4954717;28;20074;-75
2022/07/25 02:27:59;;;;;;;16.10;7.88;;;23.10;99.90;;;;;;4942486;29;20027;-75
2022/07/25 02:30:25;;;;;;;13.82;8.45;;;22.90;99.90;;;;;;4939843;29;20032;-75
2022/07/25 02:32:51;;;;;;;17.05;8.20;;;22.90;99.90;;;;;;4957766;29;20025;-74
2022/07/25 02:35:17;;;;;;;13.25;7.80;;;22.90;99.90;;;;;;4956944;29;20395;-75
2022/07/25 02:37:43;;;;;;;12.00;7.68;;;22.90;99.90;;;;;;4938710;29;20051;-75
2022/07/25 02:40:09;;;;;;;16.88;8.07;;;22.90;99.90;;;;;;4950567;29;20055;-74
2022/07/25 02:42:35;;;;;;;13.80;7.82;;;22.90;99.90;;;;;;4944932;29;20024;-75
2022/07/25 02:45:01;;;;;;;14.20;7.43;;;22.90;99.90;;;;;;4936998;29;20126;-75
2022/07/25 02:47:26;;;;;;;13.98;8.15;;;22.80;99.90;;;;;;4938543;29;20051;-75
2022/07/25 02:49:52;;;;;;;15.98;8.40;;;22.90;99.90;;;;;;4938418;29;20028;-75
2022/07/25 02:52:18;;;;;;;14.02;6.93;;;23.00;99.90;;;;;;4938466;29;20562;-75
2022/07/25 02:54:44;;;;;;;13.95;6.93;;;22.90;99.90;;;;;;4938303;29;20036;-75
2022/07/25 02:57:09;;;;;;;11.48;7.57;;;23.00;99.90;;;;;;4938150;29;20031;-75
2022/07/25 02:59:35;;;;;;;14.68;7.35;;;23.00;99.90;;;;;;4937969;29;20024;-75
2022/07/25 03:02:01;;;;;;;13.70;7.20;;;23.00;99.90;;;;;;4946752;29;20023;-74
2022/07/25 03:04:26;;;;;;;12.65;6.80;;;22.90;99.90;;;;;;4957589;29;20033;-75
2022/07/25 03:06:52;;;;;;;12.38;7.20;;;22.90;99.90;;;;;;4957455;28;20117;-75
2022/07/25 03:09:18;;;;;;;12.32;6.68;;;22.80;99.90;;;;;;4948363;29;20111;-75
2022/07/25 03:11:43;;;;;;;14.27;6.95;;;22.80;99.90;;;;;;4937502;29;20416;-75
2022/07/25 03:14:09;;;;;;;13.80;6.53;;;22.90;99.90;;;;;;4938276;29;20034;-75
2022/07/25 03:16:35;;;;;;;16.25;6.30;;;22.90;99.90;;;;;;4947208;29;20484;-74
2022/07/25 03:19:01;;;;;;;11.32;6.82;;;22.90;99.90;;;;;;4937613;29;20080;-75
2022/07/25 03:21:27;;;;;;;17.27;6.15;;;22.80;99.90;;;;;;4937707;29;20020;-74
2022/07/25 03:23:53;;;;;;;9.75;6.28;;;22.90;99.90;;;;;;4937279;29;20023;-75
2022/07/25 03:26:19;;;;;;;14.25;6.13;;;22.90;99.90;;;;;;4937708;29;20103;-75
2022/07/25 03:28:44;;;;;;;11.40;6.28;;;22.90;99.90;;;;;;4937930;29;20039;-74
2022/07/25 03:31:10;;;;;;;10.27;6.13;;;22.80;99.90;;;;;;4937353;29;20024;-75
2022/07/25 03:33:35;;;;;;;12.23;6.70;;;22.70;99.90;;;;;;4937686;29;20050;-74
2022/07/25 03:36:02;;;;;;;11.43;7.10;;;22.80;99.90;;;;;;4937489;29;20020;-75
2022/07/25 03:38:28;;;;;;;8.73;6.10;;;22.90;99.90;;;;;;4936871;29;20107;-75
2022/07/25 03:40:54;;;;;;;12.13;6.10;;;22.80;99.90;;;;;;4941940;29;20098;-75
2022/07/25 03:43:19;;;;;;;11.70;6.30;;;22.80;99.90;;;;;;4956907;29;20472;-75
2022/07/25 03:45:45;;;;;;;11.70;5.63;;;22.90;99.90;;;;;;4943321;29;20381;-75
2022/07/25 03:48:11;;;;;;;11.85;6.45;;;22.70;99.90;;;;;;4920658;29;20032;-75
2022/07/25 03:50:36;;;;;;;16.58;6.80;;;22.90;99.90;;;;;;4936964;29;20032;-75
2022/07/25 03:53:02;;;;;;;12.40;5.72;;;22.60;99.90;;;;;;4936972;29;20036;-75
2022/07/25 03:55:28;;;;;;;11.32;5.88;;;22.70;99.90;;;;;;4937070;29;20035;-74
2022/07/25 03:57:53;;;;;;;16.42;5.93;;;22.70;99.90;;;;;;4936247;29;20112;-75
2022/07/25 04:00:19;;;;;;;13.05;5.63;;;22.70;99.90;;;;;;4936778;29;20027;-74
2022/07/25 04:02:45;;;;;;;9.15;5.60;;;22.70;99.90;;;;;;4936873;29;20035;-75
2022/07/25 04:05:10;;;;;;;11.15;5.68;;;22.70;99.90;;;;;;4936782;29;20032;-74
2022/07/25 04:07:36;;;;;;;14.45;5.38;;;22.80;99.90;;;;;;4936940;29;20034;-74
2022/07/25 04:10:06;;;;;;;12.55;5.30;;;22.90;99.90;;;;;;4936675;29;20134;-74
2022/07/25 04:12:32;;;;;;;10.73;5.97;;;22.90;99.90;;;;;;4937276;29;20035;-74
2022/07/25 04:14:58;;;;;;;9.43;5.03;;;22.80;99.90;;;;;;4936966;29;20032;-72
2022/07/25 04:17:24;;;;;;;8.77;5.65;;;22.90;99.90;;;;;;4937259;29;20035;-72
2022/07/25 04:19:50;;;;;;;12.48;5.65;;;22.80;99.90;;;;;;4936565;29;20020;-71
2022/07/25 04:22:16;;;;;;;10.95;5.47;;;22.80;99.90;;;;;;4936987;29;20365;-70
2022/07/25 04:24:41;;;;;;;11.05;5.72;;;22.80;99.90;;;;;;4936563;29;20024;-72
2022/07/25 04:27:07;;;;;;;9.63;4.97;;;22.90;99.90;;;;;;4936895;29;20038;-71
2022/07/25 04:29:32;;;;;;;11.60;5.25;;;22.90;99.90;;;;;;4936170;29;20066;-71
2022/07/25 04:31:58;;;;;;;8.95;5.05;;;22.70;99.90;;;;;;4937566;29;20038;-72
2022/07/25 04:34:24;;;;;;;8.27;5.35;;;22.80;99.90;;;;;;4943580;29;20031;-71
2022/07/25 04:36:49;;;;;;;19.48;5.18;;;22.80;99.90;;;;;;4936350;29;20032;-74
2022/07/25 04:39:15;;;;;;;17.73;5.88;;;22.80;99.90;;;;;;4932090;29;20048;-74
2022/07/25 04:41:41;;;;;;;10.48;5.05;;;22.80;99.90;;;;;;4932402;29;20103;-73
2022/07/25 04:44:07;;;;;;;11.18;4.45;;;22.90;99.90;;;;;;4935646;29;20031;-73
2022/07/25 04:46:32;;;;;;;9.18;5.13;;;22.90;99.90;;;;;;4935842;29;20131;-73
2022/07/25 04:48:58;;;;;;;10.68;5.53;;;22.80;99.90;;;;;;4939940;29;20550;-73
2022/07/25 04:51:24;;;;;;;13.93;6.00;;;22.80;99.90;;;;;;4949289;29;20027;-73
2022/07/25 04:53:50;;;;;;;13.38;5.22;;;22.90;99.90;;;;;;4936322;29;20380;-73
2022/07/25 04:56:15;;;;;;;11.88;5.45;;;23.00;99.90;;;;;;4935988;29;20170;-73
2022/07/25 04:58:41;;;;;;;13.35;5.35;;;23.00;99.90;;;;;;4938779;29;20027;-74
2022/07/25 05:01:07;;;;;;;8.43;4.80;;;23.00;99.90;;;;;;4934859;29;20035;-73
2022/07/25 05:03:32;;;;;;;10.18;5.75;;;23.10;99.90;;;;;;4943656;29;20024;-74
2022/07/25 05:05:58;;;;;;;17.20;5.07;;;23.00;99.90;;;;;;4936240;29;20060;-74
2022/07/25 05:08:24;;;;;;;11.13;4.97;;;23.00;99.90;;;;;;4935801;29;20087;-74
2022/07/25 05:10:49;;;;;;;8.63;4.65;;;22.90;99.90;;;;;;4936098;29;20458;-74
2022/07/25 05:13:15;;;;;;;13.18;4.60;;;22.80;99.90;;;;;;4938352;29;20020;-74
2022/07/25 05:15:41;;;;;;;16.73;5.28;;;22.90;99.90;;;;;;4935537;29;20038;-74
2022/07/25 05:18:06;;;;;;;10.88;5.35;;;22.80;99.90;;;;;;4934184;29;20122;-74
2022/07/25 05:20:32;;;;;;;12.95;4.90;;;22.80;99.90;;;;;;4935513;29;20045;-74
2022/07/25 05:22:58;;;;;;;12.07;5.32;;;22.70;99.90;;;;;;4930654;29;20067;-74
2022/07/25 05:25:24;;;;;;;10.80;5.70;;;22.60;99.90;;;;;;4935641;29;20369;-74
2022/07/25 05:27:51;;;;;;;13.05;5.18;;;22.50;99.90;;;;;;4934454;29;20030;-73
2022/07/25 05:30:16;;;;;;;11.82;4.90;;;22.50;99.90;;;;;;4935979;29;20131;-74
2022/07/25 05:32:42;;;;;;;16.40;5.70;;;22.40;99.90;;;;;;4950083;29;20524;-73
2022/07/25 05:35:09;;;;;;;11.82;4.85;;;22.40;99.90;;;;;;4933987;29;20150;-74
2022/07/25 05:37:35;;;;;;;9.55;4.70;;;22.30;99.90;;;;;;4935021;29;20547;-74
2022/07/25 05:40:01;;;;;;;9.32;4.93;;;22.20;99.90;;;;;;4935445;29;20044;-74
2022/07/25 05:42:27;;;;;;;12.82;5.30;;;22.10;99.90;;;;;;4935276;29;20095;-74
2022/07/25 05:44:53;;;;;;;9.63;5.05;;;22.10;99.90;;;;;;4934708;29;20058;-74
2022/07/25 05:47:18;;;;;;;9.48;4.78;;;22.10;99.90;;;;;;4934709;29;20051;-74
2022/07/25 05:49:44;;;;;;;13.40;5.45;;;21.90;99.90;;;;;;4935052;29;20090;-74
2022/07/25 05:52:10;;;;;;;8.23;4.60;;;21.90;99.90;;;;;;4935211;29;20032;-74
2022/07/25 05:54:36;;;;;;;8.93;4.72;;;21.80;99.90;;;;;;4934822;29;20071;-74
2022/07/25 05:57:02;;;;;;;12.80;5.15;;;21.80;99.90;;;;;;4944374;29;20070;-74
2022/07/25 05:59:27;;;;;;;10.57;5.28;;;21.80;99.90;;;;;;4942928;29;20028;-73
2022/07/25 06:01:53;;;;;;;9.13;4.70;;;21.80;99.90;;;;;;4933932;29;20019;-74
2022/07/25 06:04:19;;;;;;;6.80;4.55;;;21.80;99.90;;;;;;4934476;29;20505;-73
2022/07/25 06:06:49;;;;;;;13.95;5.35;;;21.80;99.90;;;;;;4934297;29;20083;-74
2022/07/25 06:09:17;;;;;;;11.63;5.00;;;21.90;99.90;;;;;;4934045;29;20051;-73
2022/07/25 06:11:43;;;;;;;11.10;5.28;;;21.90;99.90;;;;;;4933621;29;20039;-74
2022/07/25 06:14:08;;;;;;;8.88;4.97;;;21.80;99.90;;;;;;4934317;29;20083;-73
2022/07/25 06:16:34;;;;;;;8.45;5.15;;;21.90;99.90;;;;;;4934553;29;20472;-73
2022/07/25 06:18:59;;;;;;;11.13;4.93;;;21.90;99.90;;;;;;4935274;29;20032;-74
2022/07/25 06:21:25;;;;;;;10.50;5.35;;;22.00;99.90;;;;;;4934976;29;20028;-74
2022/07/25 06:23:51;;;;;;;10.00;5.22;;;22.00;99.90;;;;;;4938245;29;20032;-73
2022/07/25 06:26:17;;;;;;;13.18;5.72;;;22.00;99.90;;;;;;4940772;29;20032;-74
2022/07/25 06:28:42;;;;;;;11.35;6.15;;;22.00;99.90;;;;;;4934732;29;20400;-74
2022/07/25 06:31:08;;;;;;;12.77;5.78;;;22.00;99.90;;;;;;4934107;29;20499;-74
2022/07/25 06:33:34;;;;;;;11.15;5.80;;;22.10;99.90;;;;;;4941417;29;20027;-74
2022/07/25 06:35:59;;;;;;;10.77;5.18;;;22.20;99.90;;;;;;4952633;29;20727;-74
2022/07/25 06:38:25;;;;;;;11.82;5.72;;;22.20;99.90;;;;;;4934574;29;20027;-74
2022/07/25 06:40:51;;;;;;;10.60;5.32;;;22.40;99.90;;;;;;4934457;29;20024;-78
2022/07/25 06:43:16;;;;;;;9.35;5.10;;;22.40;99.90;;;;;;4934667;29;20043;-74
2022/07/25 06:45:46;;;;;;;15.18;5.57;;;22.40;99.90;;;;;;4933631;29;20023;-74
2022/07/25 06:48:16;;;;;;;13.15;5.85;;;22.40;99.90;;;;;;4934240;29;20114;-74
2022/07/25 06:50:42;;;;;;;10.80;5.35;;;22.30;99.90;;;;;;4935130;29;20110;-73
2022/07/25 06:53:08;;;;;;;12.30;5.72;;;22.50;99.90;;;;;;4951141;29;20031;-73
2022/07/25 06:55:33;;;;;;;9.95;5.60;;;22.60;99.90;;;;;;4953510;29;20038;-74
2022/07/25 06:57:59;;;;;;;8.90;4.93;;;22.70;99.90;;;;;;4952566;29;20031;-74
2022/07/25 07:00:25;;;;;;;11.63;4.78;;;22.70;99.90;;;;;;4953277;29;20460;-75
2022/07/25 07:02:56;;;;;;;12.35;4.95;;;22.80;99.90;;;;;;4938547;29;20031;-83
2022/07/25 07:05:27;;;;;;;13.35;4.75;;;23.00;99.90;;;;;;4934826;29;20020;-75
2022/07/25 07:07:53;;;;;;;11.63;4.80;;;23.10;99.90;;;;;;4934419;29;20026;-75
2022/07/25 07:10:19;;;;;;;9.63;5.38;;;23.20;99.90;;;;;;4934203;29;20078;-75
2022/07/25 07:12:45;;;;;;;10.90;4.28;;;23.20;99.90;;;;;;4936764;29;20111;-75
2022/07/25 07:15:11;;;;;;;10.75;4.70;;;23.20;99.90;;;;;;4937329;29;20364;-74
2022/07/25 07:17:55;;;;;;;8.70;4.63;;;23.10;99.90;;;;;;4937258;29;20039;-74
2022/07/25 07:41:04;;;;;;;13.88;5.35;;;23.60;99.90;;;;;;5588866;23;20520;-75
2022/07/25 07:43:30;;;;;;;12.40;5.20;;;23.60;99.90;;;;;;4950005;28;20031;-75
2022/07/25 07:45:59;;;;;;;9.85;4.43;;;23.50;99.90;;;;;;4954903;29;20483;-75
2022/07/25 07:48:26;;;;;;;13.60;4.75;;;23.60;99.90;;;;;;4957228;28;20063;-75
2022/07/25 07:50:52;;;;;;;10.80;5.13;;;23.60;99.90;;;;;;4956337;29;20031;-75
2022/07/25 07:53:17;;;;;;;10.30;4.30;;;23.70;99.90;;;;;;4950217;28;20395;-75
2022/07/25 07:55:44;;;;;;;10.73;4.45;;;23.70;99.90;;;;;;4924840;29;20059;-75
2022/07/25 07:58:16;;;;;;;8.93;4.25;;;23.80;99.90;;;;;;4944047;29;20075;-75
2022/07/25 08:00:43;;;;;;;8.45;4.38;;;23.90;99.90;;;;;;4951793;29;20063;-75
2022/07/25 08:03:09;;;;;;;8.13;4.65;;;23.90;99.90;;;;;;4947149;29;20059;-76
2022/07/25 08:05:39;;;;;;;14.95;5.90;;;23.80;99.90;;;;;;4946350;29;20046;-75
2022/07/25 08:08:06;;;;;;;11.73;4.93;;;23.70;99.90;;;;;;4942104;29;20431;-75
2022/07/25 08:10:35;;;;;;;11.60;4.65;;;23.80;99.90;;;;;;4936294;29;20384;-75
2022/07/25 08:13:02;;;;;;;9.43;4.85;;;23.90;99.90;;;;;;4942729;29;20042;-75
2022/07/25 08:15:28;;;;;;;9.93;4.43;;;24.00;99.90;;;;;;4943624;29;20471;-75
2022/07/25 08:17:54;;;;;;;7.10;4.38;;;24.30;99.90;;;;;;4945304;29;20027;-75
2022/07/25 08:20:23;;;;;;;9.43;4.75;;;24.20;99.90;;;;;;4936421;29;20102;-76
2022/07/25 08:22:50;;;;;;;11.15;4.32;;;24.10;99.90;;;;;;4950802;28;20029;-74
2022/07/25 08:25:18;;;;;;;10.50;4.25;;;23.90;99.90;;;;;;4946954;28;20024;-74
2022/07/25 08:27:44;;;;;;;10.05;4.60;;;23.80;99.90;;;;;;4938724;29;20058;-74
2022/07/25 08:30:12;;;;;;;6.97;3.90;;;24.00;99.90;;;;;;4955769;29;20545;-75
2022/07/25 08:32:52;;;;;;;10.25;5.20;;;24.30;99.90;;;;;;4938205;29;20035;-76
2022/07/25 08:35:20;;;;;;;7.10;4.13;;;24.40;99.90;;;;;;4949137;29;20042;-77
2022/07/25 08:37:46;;;;;;;5.90;3.90;;;24.80;99.90;;;;;;4929955;29;20399;-77
2022/07/25 08:40:14;;;;;;;10.85;4.22;;;24.80;99.90;;;;;;4939948;28;20353;-77
2022/07/25 08:42:40;;;;;;;8.20;4.10;;;24.60;99.90;;;;;;4938012;29;20407;-77
2022/07/25 08:45:09;;;;;;;13.25;4.47;;;24.70;99.90;;;;;;4944489;29;20020;-77
2022/07/25 08:47:35;;;;;;;10.75;4.40;;;24.70;99.90;;;;;;4947411;29;20071;-78
2022/07/25 08:50:07;;;;;;;10.80;4.45;;;24.60;99.90;;;;;;4944232;29;20032;-78
2022/07/25 08:52:34;;;;;;;;;;;24.50;99.90;;;;;;4941142;29;20114;-78
2022/07/25 08:55:08;;;;;;;8.85;4.28;;;24.70;99.90;;;;;;4935271;29;19910;-77
2022/07/25 08:57:36;;;;;;;11.88;4.78;;;24.80;99.90;;;;;;4936171;29;20027;-78
2022/07/25 09:00:05;;;;;;;8.02;4.75;;;24.80;99.90;;;;;;4935786;29;20027;-78
2022/07/25 09:02:31;;;;;;;11.15;3.95;;;24.70;99.90;;;;;;4936130;29;20024;-78
2022/07/25 09:04:58;;;;;;;6.93;3.95;;;24.60;99.90;;;;;;4918168;29;20023;-78
2022/07/25 09:07:31;;;;;;;10.85;3.85;;;24.50;99.90;;;;;;4936136;29;20019;-78
2022/07/25 09:09:57;;;;;;;12.85;4.43;;;24.40;99.90;;;;;;4938951;29;20027;-78
2022/07/25 09:12:27;;;;;;;11.68;4.10;;;24.70;99.90;;;;;;4935896;29;20031;-78
2022/07/25 09:14:53;;;;;;;8.60;3.83;;;24.80;99.90;;;;;;4935700;29;20059;-78
2022/07/25 09:17:19;;;;;;;9.35;3.80;;;24.70;99.90;;;;;;4946738;29;20487;-79
2022/07/25 09:19:55;;;;;;;7.32;3.60;;;24.40;99.90;;;;;;4935695;29;20032;-78
2022/07/25 09:22:21;;;;;;;9.07;4.18;;;24.20;99.90;;;;;;4927572;29;20091;-78
2022/07/25 09:24:47;;;;;;;7.68;3.80;;;24.20;99.90;;;;;;4935549;29;20024;-78
2022/07/25 09:27:13;;;;;;;9.20;4.00;;;24.30;99.90;;;;;;4935728;29;20031;-78
2022/07/25 09:29:44;;;;;;;9.43;4.13;;;24.40;99.90;;;;;;4925704;29;20440;-78
2022/07/25 09:32:16;;;;;;;8.65;3.90;;;24.30;99.90;;;;;;4943499;29;20031;-78
2022/07/25 09:34:43;;;;;;;9.23;3.35;;;24.30;99.90;;;;;;4934160;29;20096;-78
2022/07/25 09:37:11;;;;;;;7.90;4.53;;;24.10;99.90;;;;;;4934670;29;20023;-78
2022/07/25 09:39:45;;;;;;;8.30;4.03;;;24.10;99.90;;;;;;4934219;29;20048;-73
2022/07/25 09:42:19;;;;;;;8.50;3.72;;;24.10;99.90;;;;;;4947617;29;20035;-72
2022/07/25 09:45:10;;;;;;;7.93;4.07;;;24.40;99.90;;;;;;4935292;29;20049;-72
2022/07/25 09:47:37;;;;;;;7.88;3.88;;;24.80;99.90;;;;;;4934926;29;20479;-72
2022/07/25 09:50:05;;;;;;;10.73;4.45;;;25.30;99.90;;;;;;4934790;29;20051;-72
2022/07/25 09:52:32;;;;;;;12.02;4.00;;;26.00;99.90;;;;;;4934114;29;20047;-72
2022/07/25 09:55:01;;;;;;;15.00;4.22;;;26.00;99.90;;;;;;4934641;29;20028;-73
2022/07/25 09:57:27;;;;;;;12.88;4.72;;;26.50;99.90;;;;;;4917353;29;20036;-72
2022/07/25 09:59:54;;;;;;;6.35;3.72;;;26.70;99.90;;;;;;4940672;29;20102;-72
2022/07/25 10:02:49;;;;;;;11.93;4.10;;;27.00;99.90;;;;;;4935804;29;20028;-73
2022/07/25 10:05:49;;;;;;;6.68;4.05;;;26.50;99.90;;;;;;4930420;29;20044;-72
2022/07/25 10:08:15;;;;;;;8.27;3.95;;;26.70;99.90;;;;;;4947614;29;20454;-72
2022/07/25 10:10:41;;;;;;;10.82;4.40;;;27.50;99.90;;;;;;4942486;29;20024;-73
2022/07/25 10:13:13;;;;;;;11.82;4.22;;;26.80;99.90;;;;;;4937861;29;20030;-73
2022/07/25 10:15:42;;;;;;;8.63;3.80;;;26.20;99.90;;;;;;4941700;29;20030;-72
2022/07/25 10:18:08;;;;;;;9.68;3.70;;;26.00;99.90;;;;;;4925251;29;20511;-72
2022/07/25 10:20:34;;;;;;;9.18;4.10;;;25.90;99.90;;;;;;4935426;29;20055;-72
2022/07/25 10:23:00;;;;;;;10.48;4.28;;;25.60;99.90;;;;;;4934215;29;20030;-72
2022/07/25 10:25:26;;;;;;;19.00;4.18;;;25.40;99.90;;;;;;4934475;29;20525;-72
2022/07/25 10:28:02;;;;;;;8.55;3.78;;;25.20;99.90;;;;;;4934633;29;20578;-72
2022/07/25 10:30:34;;;;;;;8.27;3.88;;;25.10;99.90;;;;;;4934826;29;20032;-74
2022/07/25 10:33:23;;;;;;;6.47;3.83;;;25.20;99.90;;;;;;4934953;29;20040;-72
2022/07/25 10:35:48;;;;;;;9.05;4.07;;;25.20;99.90;;;;;;4933836;29;20846;-72
2022/07/25 10:38:23;;;;;;;11.73;4.60;;;25.10;99.90;;;;;;4934100;29;20028;-72
2022/07/25 10:40:49;;;;;;;7.45;4.38;;;25.10;99.90;;;;;;4925650;29;20043;-77
2022/07/25 10:43:20;;;;;;;9.45;4.22;;;25.10;99.90;;;;;;4946240;29;20144;-79
2022/07/25 10:45:56;;;;;;;8.95;4.32;;;25.20;99.90;;;;;;4952866;28;20027;-77
2022/07/25 10:48:31;;;;;;;10.23;3.97;;;25.30;99.90;;;;;;4944864;29;20150;-78
2022/07/25 10:50:59;;;;;;;9.60;4.40;;;25.30;99.90;;;;;;4937578;29;20034;-78
2022/07/25 10:53:39;;;;;;;10.77;4.57;;;25.30;99.90;;;;;;4941352;29;20055;-77
2022/07/25 10:56:21;;;;;;;9.73;4.40;;;25.20;99.90;;;;;;4945686;29;20427;-77
2022/07/25 10:58:59;;;;;;;9.35;3.67;;;25.20;99.90;;;;;;4937745;29;20027;-77
2022/07/25 11:01:32;;;;;;;8.70;4.32;;;25.10;99.90;;;;;;4957405;29;20110;-77
2022/07/25 11:04:04;;;;;;;9.65;3.78;;;25.30;99.90;;;;;;4947148;29;20031;-78
2022/07/25 11:06:33;;;;;;;11.88;4.30;;;25.30;99.90;;;;;;4937395;29;20494;-77
2022/07/25 11:09:00;;;;;;;8.73;4.00;;;25.40;99.90;;;;;;4938443;29;20020;-77
2022/07/25 11:11:36;;;;;;;7.55;4.45;;;25.70;99.90;;;;;;4940566;29;20055;-77
2022/07/25 11:14:03;;;;;;;12.48;4.07;;;25.70;99.90;;;;;;4941829;29;20487;-76
2022/07/25 11:16:29;;;;;;;10.23;4.28;;;25.70;99.90;;;;;;4948232;29;20030;-77
2022/07/25 11:18:55;;;;;;;10.23;4.50;;;25.70;99.90;;;;;;4949049;29;20480;-76
2022/07/25 11:21:21;;;;;;;10.70;3.97;;;25.60;99.90;;;;;;4935694;29;20180;-76
2022/07/25 11:23:52;;;;;;;9.82;4.18;;;25.50;99.90;;;;;;4949221;29;20106;-77
2022/07/25 11:26:18;;;;;;;8.40;4.78;;;25.40;99.90;;;;;;4944637;29;20415;-76
2022/07/25 11:28:48;;;;;;;6.57;3.88;;;25.40;99.90;;;;;;4938001;29;20040;-77
2022/07/25 11:31:15;;;;;;;10.32;3.80;;;25.50;99.90;;;;;;4937165;29;20042;-77
2022/07/25 11:33:44;;;;;;;6.68;3.92;;;25.90;99.90;;;;;;4946974;29;20430;-77
2022/07/25 11:36:10;;;;;;;13.43;3.15;;;27.10;98.60;;;;;;4947016;29;20447;-76
2022/07/25 11:38:38;;;;;;;8.65;3.90;;;27.60;96.40;;;;;;4937334;29;20059;-77
2022/07/25 11:41:05;;;;;;;8.85;3.22;;;28.10;93.50;;;;;;4937029;29;20043;-77
2022/07/25 11:43:31;;;;;;;6.93;3.00;;;28.50;91.80;;;;;;4938432;29;20028;-78
2022/07/25 11:46:05;;;;;;;7.45;2.65;;;28.50;90.20;;;;;;4937863;29;20028;-77
2022/07/25 11:48:32;;;;;;;14.27;3.20;;;27.90;88.90;;;;;;4938535;29;20035;-77
2022/07/25 11:51:17;;;;;;;7.90;2.60;;;27.50;90.70;;;;;;4936886;29;20063;-77
2022/07/25 11:53:48;;;;;;;10.63;2.70;;;27.60;90.80;;;;;;4936389;29;20099;-77
2022/07/25 11:56:16;;;;;;;5.72;2.28;;;27.80;88.90;;;;;;4937203;29;20510;-77
2022/07/25 11:58:48;;;;;;;7.40;2.60;;;27.50;89.80;;;;;;4917400;29;20028;-77
2022/07/25 12:01:14;;;;;;;;;;;27.40;90.20;;;;;;4944530;29;20027;-78
2022/07/25 12:03:41;;;;;;;7.13;2.40;;;27.20;90.30;;;;;;4943765;29;19911;-78
2022/07/25 12:06:10;;;;;;;7.65;2.30;;;27.30;90.40;;;;;;4936955;29;20016;-78
2022/07/25 12:08:38;;;;;;;4.88;2.63;;;27.70;89.10;;;;;;4936613;29;20034;-78
2022/07/25 12:11:14;;;;;;;5.25;2.53;;;27.70;88.30;;;;;;4935822;29;20028;-79
2022/07/25 12:13:40;;;;;;;8.38;2.47;;;27.70;88.20;;;;;;4936779;29;20057;-78
2022/07/25 12:16:06;;;;;;;6.55;2.65;;;27.60;87.40;;;;;;4939701;29;20065;-78
2022/07/25 12:18:31;;;;;;;6.30;2.60;;;27.80;86.90;;;;;;4938291;29;20031;-77
2022/07/25 12:20:57;;;;;;;4.63;2.67;;;27.60;87.20;;;;;;4936030;29;20095;-78
2022/07/25 12:23:22;;;;;;;10.73;2.63;;;27.40;89.10;;;;;;4939486;29;20448;-77
2022/07/25 12:25:49;;;;;;;7.45;2.38;;;27.30;90.80;;;;;;4956271;29;20115;-77
2022/07/25 12:28:15;;;;;;;5.57;2.70;;;27.40;91.70;;;;;;4939439;29;20080;-77
2022/07/25 12:30:42;;;;;;;7.10;2.70;;;27.30;91.40;;;;;;4935545;29;20039;-78
2022/07/25 12:33:09;;;;;;;14.10;2.70;;;27.30;91.30;;;;;;4934942;29;20032;-77
2022/07/25 12:35:36;;;;;;;7.75;2.95;;;27.10;91.30;;;;;;4935241;29;20062;-78
2022/07/25 12:38:02;;;;;;;5.80;2.60;;;27.00;91.70;;;;;;4935756;29;20187;-78
2022/07/25 12:40:27;;;;;;;8.50;3.00;;;26.90;92.30;;;;;;4938892;29;20114;-78
2022/07/25 12:42:53;;;;;;;10.88;2.67;;;26.80;92.90;;;;;;4942757;29;20020;-78
2022/07/25 12:45:19;;;;;;;11.52;2.95;;;26.80;92.90;;;;;;4936204;29;20020;-77
2022/07/25 12:47:46;;;;;;;7.38;2.40;;;26.70;93.70;;;;;;4937995;29;20090;-78
2022/07/25 12:50:12;;;;;;;6.30;2.70;;;26.60;94.00;;;;;;4949886;29;20074;-78
2022/07/25 12:52:39;;;;;;;13.63;2.90;;;26.40;94.40;;;;;;4944597;29;20457;-78
2022/07/25 12:55:09;;;;;;;9.45;2.70;;;26.40;94.90;;;;;;4940312;29;20027;-78
2022/07/25 12:57:36;;;;;;;10.07;2.53;;;26.40;94.90;;;;;;4944410;29;20051;-78
2022/07/25 13:00:04;;;;;;;6.85;2.65;;;26.30;94.80;;;;;;4946432;29;20023;-78
2022/07/25 13:02:30;;;;;;;9.93;2.80;;;26.30;95.30;;;;;;4935538;29;20020;-78